createdAt,value
2018-03-11T00:00:36.585Z,12.00
2018-03-11T00:03:02.914Z,11.90
2018-03-11T00:05:29.448Z,11.90
2018-03-11T00:07:56.649Z,12.00
2018-03-11T00:10:23.702Z,12.00
2018-03-11T00:12:49.818Z,12.00
2018-03-11T00:15:16.155Z,11.90
2018-03-11T00:17:42.274Z,11.90
2018-03-11T00:20:08.514Z,11.90
2018-03-11T00:22:34.734Z,11.90
2018-03-11T00:25:00.953Z,11.90
2018-03-11T00:27:27.782Z,11.90
2018-03-11T00:29:53.963Z,11.80
2018-03-11T00:32:21.215Z,11.90
2018-03-11T00:34:47.371Z,11.80
2018-03-11T00:37:14.378Z,11.80
2018-03-11T00:39:41.704Z,11.80
2018-03-11T00:42:07.898Z,11.80
2018-03-11T00:44:34.029Z,11.70
2018-03-11T00:47:00.224Z,11.70
2018-03-11T00:49:26.308Z,11.70
2018-03-11T00:51:52.598Z,11.70
2018-03-11T00:54:19.471Z,11.70
2018-03-11T00:56:45.641Z,11.60
2018-03-11T00:59:11.812Z,11.80
2018-03-11T01:01:38.841Z,11.70
2018-03-11T01:04:06.298Z,11.70
2018-03-11T01:06:33.003Z,11.60
2018-03-11T01:09:00.349Z,11.60
2018-03-11T01:11:26.584Z,11.50
2018-03-11T01:13:52.941Z,11.40
2018-03-11T01:16:19.276Z,11.30
2018-03-11T01:18:46.263Z,11.30
2018-03-11T01:21:12.456Z,11.20
2018-03-11T01:23:39.292Z,11.30
2018-03-11T01:26:05.899Z,11.20
2018-03-11T01:28:32.056Z,11.20
2018-03-11T01:30:58.216Z,11.10
2018-03-11T01:33:24.716Z,11.10
2018-03-11T01:35:51.706Z,11.10
2018-03-11T01:38:18.277Z,11.10
2018-03-11T01:40:44.840Z,11.00
2018-03-11T01:43:12.065Z,10.90
2018-03-11T01:45:38.840Z,10.80
2018-03-11T01:48:05.743Z,10.80
2018-03-11T01:50:31.848Z,10.80
2018-03-11T01:53:08.006Z,10.80
2018-03-11T01:55:34.156Z,10.70
2018-03-11T01:58:07.464Z,10.70
2018-03-11T02:00:33.728Z,10.70
2018-03-11T02:02:59.890Z,10.70
2018-03-11T02:05:26.763Z,10.60
2018-03-11T02:07:53.588Z,10.60
2018-03-11T02:10:20.627Z,10.70
2018-03-11T02:12:47.463Z,10.70
2018-03-11T02:15:13.619Z,10.60
2018-03-11T02:17:40.786Z,10.60
2018-03-11T02:20:06.971Z,10.60
2018-03-11T02:22:33.564Z,10.60
2018-03-11T02:24:59.879Z,10.60
2018-03-11T02:27:26.421Z,10.50
2018-03-11T02:29:53.391Z,10.50
2018-03-11T02:32:20.163Z,10.50
2018-03-11T02:34:46.386Z,10.50
2018-03-11T02:37:12.519Z,10.50
2018-03-11T02:39:38.659Z,10.50
2018-03-11T02:42:04.836Z,10.50
2018-03-11T02:44:30.998Z,10.60
2018-03-11T02:46:57.092Z,10.50
2018-03-11T02:49:23.825Z,10.70
2018-03-11T02:51:49.905Z,10.70
2018-03-11T02:54:16.150Z,10.70
2018-03-11T02:56:42.296Z,10.60
2018-03-11T02:59:08.534Z,10.50
2018-03-11T03:01:34.965Z,10.60
2018-03-11T03:04:01.223Z,10.70
2018-03-11T03:06:27.695Z,10.60
2018-03-11T03:08:53.801Z,10.60
2018-03-11T03:11:21.032Z,10.60
2018-03-11T03:13:47.184Z,10.60
2018-03-11T03:16:13.550Z,10.50
2018-03-11T03:18:40.873Z,10.40
2018-03-11T03:23:40.072Z,10.50
2018-03-11T03:26:06.323Z,10.50
2018-03-11T03:28:32.945Z,10.40
2018-03-11T03:30:59.944Z,10.30
2018-03-11T03:33:26.750Z,10.30
2018-03-11T03:35:59.878Z,10.30
2018-03-11T03:38:26.226Z,10.40
2018-03-11T03:40:52.426Z,10.40
2018-03-11T03:43:18.546Z,10.30
2018-03-11T03:45:44.667Z,10.20
2018-03-11T03:48:11.531Z,10.10
2018-03-11T03:50:37.640Z,10.10
2018-03-11T03:53:04.272Z,10.10
2018-03-11T03:55:30.594Z,10.10
2018-03-11T03:57:57.555Z,10.10
2018-03-11T04:00:24.532Z,10.10
2018-03-11T04:02:51.213Z,10.00
2018-03-11T04:05:17.741Z,10.10
2018-03-11T04:07:44.090Z,10.00
2018-03-11T04:10:10.487Z,10.20
2018-03-11T04:12:36.612Z,10.40
2018-03-11T04:15:02.755Z,10.30
2018-03-11T04:17:29.179Z,10.20
2018-03-11T04:19:55.443Z,10.30
2018-03-11T04:22:22.900Z,10.50
2018-03-11T04:24:49.213Z,10.40
2018-03-11T04:27:15.357Z,10.30
2018-03-11T04:29:41.591Z,10.10
2018-03-11T04:32:07.872Z,10.10
2018-03-11T04:34:34.852Z,10.20
2018-03-11T04:37:01.078Z,10.20
2018-03-11T04:39:28.103Z,10.00
2018-03-11T04:41:54.260Z,10.00
2018-03-11T04:44:21.183Z,10.10
2018-03-11T04:46:47.745Z,10.10
2018-03-11T04:49:14.634Z,10.20
2018-03-11T04:51:40.919Z,10.10
2018-03-11T04:54:07.614Z,10.10
2018-03-11T04:56:33.848Z,10.10
2018-03-11T04:59:00.003Z,10.10
2018-03-11T05:01:27.168Z,10.20
2018-03-11T05:03:54.467Z,10.20
2018-03-11T05:06:20.731Z,10.10
2018-03-11T05:08:46.995Z,10.10
2018-03-11T05:11:13.798Z,10.00
2018-03-11T05:13:40.929Z,9.90
2018-03-11T05:16:07.163Z,9.80
2018-03-11T05:18:33.320Z,9.90
2018-03-11T05:20:59.463Z,9.80
2018-03-11T05:23:25.714Z,9.80
2018-03-11T05:25:51.809Z,9.80
2018-03-11T05:28:18.076Z,9.70
2018-03-11T05:30:44.275Z,9.70
2018-03-11T05:33:10.703Z,9.60
2018-03-11T05:35:37.544Z,9.50
2018-03-11T05:38:04.918Z,9.50
2018-03-11T05:40:31.048Z,9.40
2018-03-11T05:42:57.175Z,9.50
2018-03-11T05:45:24.140Z,9.60
2018-03-11T05:47:50.558Z,9.50
2018-03-11T05:50:16.852Z,9.60
2018-03-11T05:52:42.999Z,9.70
2018-03-11T05:55:09.251Z,9.80
2018-03-11T05:57:36.201Z,10.00
2018-03-11T06:00:02.725Z,9.90
2018-03-11T06:02:29.049Z,10.00
2018-03-11T06:04:55.199Z,10.00
2018-03-11T06:07:21.732Z,10.00
2018-03-11T06:09:48.673Z,10.00
2018-03-11T06:12:15.717Z,10.00
2018-03-11T06:14:41.883Z,10.00
2018-03-11T06:17:08.743Z,10.00
2018-03-11T06:19:35.034Z,10.00
2018-03-11T06:22:01.111Z,10.00
2018-03-11T06:24:28.071Z,10.20
2018-03-11T06:26:54.900Z,10.20
2018-03-11T06:29:21.855Z,10.20
2018-03-11T06:31:49.272Z,10.20
2018-03-11T06:34:16.039Z,10.20
2018-03-11T06:36:42.584Z,10.10
2018-03-11T06:39:08.810Z,10.20
2018-03-11T06:41:34.946Z,10.30
2018-03-11T06:44:02.610Z,10.30
2018-03-11T06:46:28.714Z,10.30
2018-03-11T06:48:54.799Z,10.30
2018-03-11T06:51:21.687Z,10.30
2018-03-11T06:53:49.156Z,10.20
2018-03-11T06:56:15.648Z,10.20
2018-03-11T06:58:41.811Z,10.20
2018-03-11T07:01:08.141Z,10.30
2018-03-11T07:03:34.243Z,10.30
2018-03-11T07:06:01.428Z,10.60
2018-03-11T07:08:27.675Z,10.60
2018-03-11T07:10:54.072Z,10.60
2018-03-11T07:13:20.478Z,10.60
2018-03-11T07:15:47.349Z,10.60
2018-03-11T07:18:13.483Z,10.70
2018-03-11T07:20:39.573Z,10.70
2018-03-11T07:23:05.695Z,10.70
2018-03-11T07:25:31.778Z,10.70
2018-03-11T07:27:57.858Z,10.70
2018-03-11T07:30:23.943Z,10.80
2018-03-11T07:32:51.489Z,10.90
2018-03-11T07:35:17.752Z,10.90
2018-03-11T07:37:44.668Z,10.80
2018-03-11T07:40:10.813Z,10.80
2018-03-11T07:42:37.800Z,10.90
2018-03-11T07:45:03.987Z,11.10
2018-03-11T07:47:30.080Z,11.40
2018-03-11T07:49:56.930Z,11.60
2018-03-11T07:52:23.100Z,11.50
2018-03-11T07:54:50.923Z,11.60
2018-03-11T07:57:18.421Z,11.60
2018-03-11T07:59:44.593Z,11.70
2018-03-11T08:02:11.212Z,11.60
2018-03-11T08:04:38.050Z,11.60
2018-03-11T08:07:04.275Z,11.60
2018-03-11T08:09:31.495Z,11.70
2018-03-11T08:11:57.577Z,11.70
2018-03-11T08:14:24.560Z,11.80
2018-03-11T08:16:50.656Z,11.70
2018-03-11T08:19:16.929Z,11.80
2018-03-11T08:21:43.186Z,11.80
2018-03-11T08:24:09.606Z,11.80
2018-03-11T08:26:36.811Z,11.70
2018-03-11T08:29:02.936Z,11.70
2018-03-11T08:31:29.065Z,11.80
2018-03-11T08:33:55.191Z,11.90
2018-03-11T08:36:21.312Z,12.20
2018-03-11T08:38:47.331Z,12.10
2018-03-11T08:41:13.498Z,12.20
2018-03-11T08:43:40.097Z,12.10
2018-03-11T08:46:06.652Z,12.10
2018-03-11T08:48:32.702Z,12.10
2018-03-11T08:50:58.827Z,12.10
2018-03-11T08:53:25.318Z,12.10
2018-03-11T08:55:51.444Z,12.20
2018-03-11T08:58:17.577Z,12.40
2018-03-11T09:00:45.843Z,12.80
2018-03-11T09:03:13.297Z,12.90
2018-03-11T09:05:40.248Z,12.90
2018-03-11T09:08:06.450Z,13.00
2018-03-11T09:10:33.454Z,13.10
2018-03-11T09:15:32.749Z,12.90
2018-03-11T09:17:59.780Z,13.00
2018-03-11T09:20:25.943Z,13.10
2018-03-11T09:22:52.200Z,13.10
2018-03-11T09:25:18.449Z,13.10
2018-03-11T09:27:45.394Z,13.20
2018-03-11T09:30:12.897Z,13.20
2018-03-11T09:32:39.002Z,13.20
2018-03-11T09:35:05.071Z,13.20
2018-03-11T09:37:31.160Z,13.30
2018-03-11T09:39:58.026Z,13.30
2018-03-11T09:42:24.537Z,13.30
2018-03-11T09:44:51.554Z,13.40
2018-03-11T09:47:17.745Z,13.30
2018-03-11T09:49:44.330Z,13.40
2018-03-11T09:52:10.368Z,13.40
2018-03-11T09:54:38.054Z,13.40
2018-03-11T09:57:04.896Z,13.30
2018-03-11T09:59:31.116Z,13.30
2018-03-11T10:01:57.317Z,13.40
2018-03-11T10:04:23.535Z,13.40
2018-03-11T10:06:49.979Z,13.40
2018-03-11T10:09:16.286Z,13.40
2018-03-11T10:11:43.603Z,13.30
2018-03-11T10:14:10.806Z,13.30
2018-03-11T10:16:37.615Z,13.30
2018-03-11T10:19:03.708Z,13.30
2018-03-11T10:21:30.549Z,13.30
2018-03-11T10:23:56.634Z,13.30
2018-03-11T10:26:22.666Z,13.30
2018-03-11T10:28:48.821Z,13.30
2018-03-11T10:31:15.658Z,13.30
2018-03-11T10:33:42.603Z,13.40
2018-03-11T10:36:08.734Z,13.30
2018-03-11T10:38:34.858Z,13.50
2018-03-11T10:41:01.048Z,13.60
2018-03-11T10:43:27.278Z,13.80
2018-03-11T10:45:53.370Z,13.90
2018-03-11T10:48:19.469Z,13.80
2018-03-11T10:50:46.116Z,13.90
2018-03-11T10:53:12.289Z,13.80
2018-03-11T10:55:38.445Z,13.80
2018-03-11T10:58:04.697Z,13.80
2018-03-11T11:00:37.118Z,13.90
2018-03-11T11:03:09.380Z,14.00
2018-03-11T11:05:36.348Z,14.00
2018-03-11T11:08:03.625Z,14.00
2018-03-11T11:10:31.656Z,14.00
2018-03-11T11:12:58.659Z,13.90
2018-03-11T11:15:24.847Z,13.80
2018-03-11T11:17:51.663Z,13.80
2018-03-11T11:20:17.847Z,13.80
2018-03-11T11:22:44.106Z,13.90
2018-03-11T11:25:10.810Z,13.90
2018-03-11T11:27:36.985Z,13.90
2018-03-11T11:30:03.168Z,14.00
2018-03-11T11:32:29.991Z,14.10
2018-03-11T11:34:57.216Z,14.00
2018-03-11T11:37:23.492Z,14.10
2018-03-11T11:39:49.570Z,14.10
2018-03-11T11:42:16.777Z,14.00
2018-03-11T11:44:43.887Z,13.90
2018-03-11T11:47:10.057Z,13.90
2018-03-11T11:49:36.263Z,13.90
2018-03-11T11:52:02.337Z,13.80
2018-03-11T11:54:31.514Z,13.90
2018-03-11T11:56:58.158Z,13.90
2018-03-11T11:59:24.394Z,14.10
2018-03-11T12:01:51.434Z,14.20
2018-03-11T12:04:17.550Z,14.40
2018-03-11T12:06:46.090Z,14.50
2018-03-11T12:09:12.387Z,14.60
2018-03-11T12:11:38.708Z,14.50
2018-03-11T12:14:04.931Z,14.60
2018-03-11T12:16:31.212Z,14.60
2018-03-11T12:18:59.132Z,14.60
2018-03-11T12:21:32.459Z,14.50
2018-03-11T12:24:07.950Z,14.60
2018-03-11T12:26:41.731Z,14.60
2018-03-11T12:29:14.071Z,14.80
2018-03-11T12:31:57.443Z,14.80
2018-03-11T12:34:27.212Z,14.90
2018-03-11T12:37:02.273Z,15.10
2018-03-11T12:39:41.730Z,15.00
2018-03-11T12:42:11.204Z,15.10
2018-03-11T12:44:38.145Z,15.30
2018-03-11T12:47:04.201Z,15.20
2018-03-11T12:49:30.628Z,15.40
2018-03-11T12:51:57.387Z,15.30
2018-03-11T12:54:23.657Z,15.20
2018-03-11T12:56:50.848Z,15.20
2018-03-11T12:59:17.182Z,15.20
2018-03-11T13:01:43.804Z,15.30
2018-03-11T13:04:12.872Z,15.20
2018-03-11T13:06:39.373Z,15.20
2018-03-11T13:09:05.893Z,15.30
2018-03-11T13:11:34.571Z,15.10
2018-03-11T13:14:00.731Z,15.10
2018-03-11T13:16:28.088Z,15.10
2018-03-11T13:18:57.841Z,15.20
2018-03-11T13:21:26.715Z,15.20
2018-03-11T13:23:57.333Z,15.10
2018-03-11T13:26:26.722Z,15.20
2018-03-11T13:28:54.052Z,15.20
2018-03-11T13:31:21.851Z,15.20
2018-03-11T13:34:05.082Z,15.40
2018-03-11T13:36:34.372Z,15.40
2018-03-11T13:39:15.112Z,15.80
2018-03-11T13:41:41.873Z,16.00
2018-03-11T13:44:09.343Z,16.80
2018-03-11T13:46:48.860Z,17.20
2018-03-11T13:49:15.984Z,17.10
2018-03-11T13:51:55.443Z,17.50
2018-03-11T13:54:21.594Z,17.70
2018-03-11T13:56:48.512Z,18.20
2018-03-11T13:59:14.723Z,18.20
2018-03-11T14:01:41.709Z,18.40
2018-03-11T14:04:07.946Z,18.30
2018-03-11T14:06:34.077Z,18.30
2018-03-11T14:09:01.318Z,18.30
2018-03-11T14:11:27.565Z,18.10
2018-03-11T14:13:54.551Z,18.00
2018-03-11T14:16:21.382Z,17.90
2018-03-11T14:18:48.480Z,17.70
2018-03-11T14:21:14.675Z,17.60
2018-03-11T14:23:42.633Z,18.10
2018-03-11T14:26:10.411Z,18.30
2018-03-11T14:28:37.985Z,18.50
2018-03-11T14:31:04.939Z,18.20
2018-03-11T14:33:32.512Z,17.40
2018-03-11T14:35:58.641Z,17.30
2018-03-11T14:38:25.355Z,17.00
2018-03-11T14:40:51.568Z,16.90
2018-03-11T14:43:17.674Z,16.70
2018-03-11T14:45:43.907Z,16.50
2018-03-11T14:48:11.046Z,16.40
2018-03-11T14:50:37.294Z,16.40
2018-03-11T14:53:04.349Z,16.20
2018-03-11T14:55:30.739Z,16.10
2018-03-11T14:57:57.031Z,16.10
2018-03-11T15:00:24.164Z,16.10
2018-03-11T15:02:53.466Z,15.90
2018-03-11T15:05:19.602Z,15.80
2018-03-11T15:07:46.333Z,15.70
2018-03-11T15:10:15.314Z,15.50
2018-03-11T15:12:42.648Z,15.40
2018-03-11T15:15:09.522Z,15.50
2018-03-11T15:17:35.875Z,15.40
2018-03-11T15:20:02.117Z,15.40
2018-03-11T15:22:28.313Z,15.30
2018-03-11T15:24:54.741Z,15.20
2018-03-11T15:27:21.012Z,15.20
2018-03-11T15:29:47.217Z,15.00
2018-03-11T15:32:14.508Z,15.10
2018-03-11T15:34:41.247Z,15.10
2018-03-11T15:37:08.337Z,15.10
2018-03-11T15:39:34.690Z,15.00
2018-03-11T15:42:01.366Z,15.10
2018-03-11T15:44:28.436Z,15.10
2018-03-11T15:46:57.484Z,15.10
2018-03-11T15:49:25.012Z,15.20
2018-03-11T15:51:51.303Z,15.10
2018-03-11T15:54:17.620Z,15.20
2018-03-11T15:56:43.726Z,15.10
2018-03-11T15:59:09.961Z,15.10
2018-03-11T16:01:36.807Z,15.00
2018-03-11T16:04:04.885Z,14.90
2018-03-11T16:06:31.421Z,15.00
2018-03-11T16:08:57.716Z,15.10
2018-03-11T16:11:24.072Z,15.10
2018-03-11T16:13:50.278Z,15.20
2018-03-11T16:16:16.653Z,15.10
2018-03-11T16:18:43.262Z,15.10
2018-03-11T16:21:09.443Z,14.90
2018-03-11T16:23:36.233Z,15.00
2018-03-11T16:26:02.504Z,15.00
2018-03-11T16:28:28.776Z,15.00
2018-03-11T16:30:55.152Z,15.00
2018-03-11T16:33:21.319Z,14.90
2018-03-11T16:35:47.638Z,14.90
2018-03-11T16:38:13.970Z,14.90
2018-03-11T16:40:40.195Z,14.90
2018-03-11T16:43:07.927Z,14.90
2018-03-11T16:45:34.341Z,14.80
2018-03-11T16:48:00.588Z,14.80
2018-03-11T16:50:27.085Z,14.70
2018-03-11T16:52:54.652Z,14.70
2018-03-11T16:55:21.599Z,14.60
2018-03-11T16:57:47.785Z,14.60
2018-03-11T17:00:14.006Z,14.60
2018-03-11T17:02:47.524Z,14.60
2018-03-11T17:05:13.782Z,14.40
2018-03-11T17:07:40.541Z,14.40
2018-03-11T17:10:06.845Z,14.30
2018-03-11T17:12:33.009Z,14.40
2018-03-11T17:15:00.021Z,14.30
2018-03-11T17:17:26.940Z,14.30
2018-03-11T17:19:54.028Z,14.30
2018-03-11T17:22:20.462Z,14.20
2018-03-11T17:24:46.658Z,14.30
2018-03-11T17:27:13.240Z,14.20
2018-03-11T17:29:42.907Z,14.20
2018-03-11T17:32:09.968Z,14.20
2018-03-11T17:34:36.313Z,14.10
2018-03-11T17:37:02.463Z,14.00
2018-03-11T17:39:29.240Z,14.00
2018-03-11T17:41:55.549Z,14.00
2018-03-11T17:44:21.840Z,13.90
2018-03-11T17:46:50.088Z,13.90
2018-03-11T17:49:17.114Z,13.80
2018-03-11T17:51:43.513Z,13.80
2018-03-11T17:54:10.545Z,13.80
2018-03-11T17:56:36.775Z,13.80
2018-03-11T17:59:05.234Z,13.70
2018-03-11T18:01:32.249Z,13.70
2018-03-11T18:03:58.669Z,13.60
2018-03-11T18:06:25.289Z,13.70
2018-03-11T18:08:52.287Z,13.60
2018-03-11T18:11:20.395Z,13.70
2018-03-11T18:13:54.257Z,13.70
2018-03-11T18:16:26.726Z,13.70
2018-03-11T18:18:54.231Z,13.70
2018-03-11T18:21:21.462Z,13.60
2018-03-11T18:23:47.912Z,13.50
2018-03-11T18:26:15.675Z,13.60
2018-03-11T18:28:43.029Z,13.50
2018-03-11T18:31:10.245Z,13.60
2018-03-11T18:33:37.391Z,13.60
2018-03-11T18:36:05.042Z,13.50
2018-03-11T18:38:31.524Z,13.50
2018-03-11T18:40:59.293Z,13.50
2018-03-11T18:43:25.883Z,13.40
2018-03-11T18:45:53.976Z,13.40
2018-03-11T18:48:20.809Z,13.40
2018-03-11T18:50:47.597Z,13.40
2018-03-11T18:53:14.913Z,13.40
2018-03-11T18:55:43.381Z,13.40
2018-03-11T18:58:10.972Z,13.30
2018-03-11T19:00:37.224Z,13.30
2018-03-11T19:03:03.870Z,13.30
2018-03-11T19:05:31.527Z,13.20
2018-03-11T19:07:59.173Z,13.10
2018-03-11T19:10:27.377Z,13.20
2018-03-11T19:12:53.861Z,13.10
2018-03-11T19:15:22.411Z,13.10
2018-03-11T19:17:48.712Z,13.10
2018-03-11T19:20:15.428Z,13.10
2018-03-11T19:22:41.800Z,13.10
2018-03-11T19:25:08.144Z,13.00
2018-03-11T19:27:34.341Z,13.00
2018-03-11T19:30:01.980Z,13.00
2018-03-11T19:32:31.231Z,13.00
2018-03-11T19:34:58.467Z,13.00
2018-03-11T19:37:24.720Z,13.10
2018-03-11T19:39:50.961Z,13.00
2018-03-11T19:42:17.201Z,13.00
2018-03-11T19:44:43.509Z,13.00
2018-03-11T19:47:09.706Z,13.00
2018-03-11T19:49:35.752Z,13.00
2018-03-11T19:52:01.980Z,12.90
2018-03-11T19:54:32.060Z,12.90
2018-03-11T19:56:58.691Z,12.90
2018-03-11T19:59:24.960Z,12.90
2018-03-11T20:01:51.295Z,12.90
2018-03-11T20:04:17.419Z,12.90
2018-03-11T20:06:43.954Z,12.90
2018-03-11T20:09:11.167Z,12.90
2018-03-11T20:11:37.448Z,12.90
2018-03-11T20:14:05.559Z,12.90
2018-03-11T20:16:32.455Z,12.90
2018-03-11T20:18:59.410Z,12.80
2018-03-11T20:21:25.538Z,12.90
2018-03-11T20:23:52.299Z,12.80
2018-03-11T20:26:18.601Z,12.80
2018-03-11T20:28:44.728Z,12.70
2018-03-11T20:31:10.885Z,12.80
2018-03-11T20:33:37.414Z,12.80
2018-03-11T20:36:03.496Z,12.80
2018-03-11T20:38:30.336Z,12.80
2018-03-11T20:40:57.996Z,12.80
2018-03-11T20:43:24.099Z,12.80
2018-03-11T20:45:50.286Z,12.70
2018-03-11T20:48:16.904Z,12.70
2018-03-11T20:50:44.339Z,12.60
2018-03-11T20:53:11.434Z,12.60
2018-03-11T20:55:38.309Z,12.50
2018-03-11T20:58:06.154Z,12.60
2018-03-11T21:00:33.150Z,12.50
2018-03-11T21:02:59.350Z,12.60
2018-03-11T21:05:25.864Z,12.50
2018-03-11T21:07:52.330Z,12.50
2018-03-11T21:10:19.665Z,12.60
2018-03-11T21:12:45.967Z,12.50
2018-03-11T21:15:12.070Z,12.60
2018-03-11T21:17:39.177Z,12.60
2018-03-11T21:20:05.533Z,12.50
2018-03-11T21:22:32.219Z,12.60
2018-03-11T21:24:59.671Z,12.60
2018-03-11T21:27:25.794Z,12.60
2018-03-11T21:32:25.428Z,12.60
2018-03-11T21:34:51.660Z,12.50
2018-03-11T21:37:18.095Z,12.40
2018-03-11T21:39:45.657Z,12.30
2018-03-11T21:42:12.295Z,12.30
2018-03-11T21:44:39.239Z,12.30
2018-03-11T21:47:05.560Z,12.20
2018-03-11T21:49:31.897Z,12.30
2018-03-11T21:51:58.445Z,12.20
2018-03-11T21:54:25.606Z,12.20
2018-03-11T21:56:51.630Z,12.30
2018-03-11T21:59:18.504Z,12.20
2018-03-11T22:01:44.651Z,12.20
2018-03-11T22:04:10.782Z,12.20
2018-03-11T22:06:37.022Z,12.20
2018-03-11T22:09:03.178Z,12.20
2018-03-11T22:11:30.157Z,12.10
2018-03-11T22:13:56.676Z,12.10
2018-03-11T22:16:22.902Z,12.10
2018-03-11T22:18:49.220Z,12.10
2018-03-11T22:21:15.438Z,12.10
2018-03-11T22:23:42.443Z,12.10
2018-03-11T22:26:08.632Z,12.10
2018-03-11T22:28:34.872Z,12.00
2018-03-11T22:31:01.050Z,12.00
2018-03-11T22:33:27.113Z,12.10
2018-03-11T22:35:53.994Z,12.10
2018-03-11T22:38:20.126Z,12.00
2018-03-11T22:40:46.478Z,12.10
2018-03-11T22:43:12.749Z,12.10
2018-03-11T22:45:39.073Z,12.00
2018-03-11T22:48:05.272Z,12.00
2018-03-11T22:50:31.457Z,11.80
2018-03-11T22:52:59.583Z,11.90
2018-03-11T22:55:26.090Z,11.80
2018-03-11T22:57:52.428Z,11.90
2018-03-11T23:00:18.592Z,11.90
2018-03-11T23:02:44.815Z,11.80
2018-03-11T23:05:10.937Z,11.80
2018-03-11T23:07:37.115Z,11.90
2018-03-11T23:10:03.347Z,11.90
2018-03-11T23:12:31.192Z,11.80
2018-03-11T23:14:57.313Z,11.80
2018-03-11T23:17:23.495Z,11.80
2018-03-11T23:19:49.603Z,11.80
2018-03-11T23:22:15.867Z,11.90
2018-03-11T23:24:43.361Z,11.90
2018-03-11T23:27:10.196Z,11.80
2018-03-11T23:29:37.116Z,11.90
2018-03-11T23:32:03.640Z,11.80
2018-03-11T23:34:29.932Z,11.90
2018-03-11T23:36:56.205Z,11.90
2018-03-11T23:39:22.309Z,11.90
2018-03-11T23:41:48.561Z,11.90
2018-03-11T23:44:15.211Z,11.90
2018-03-11T23:46:41.414Z,11.90
2018-03-11T23:49:07.518Z,11.90
2018-03-11T23:51:33.701Z,11.90
2018-03-11T23:54:02.279Z,11.90
2018-03-11T23:56:28.423Z,11.90
2018-03-11T23:58:54.921Z,11.90
